createdAt,value
2023-05-18T00:00:14.241Z,3.20
2023-05-18T00:02:41.508Z,3.60
2023-05-18T00:05:11.875Z,3.50
2023-05-18T00:07:39.520Z,3.43
2023-05-18T00:10:07.911Z,3.70
2023-05-18T00:12:35.262Z,3.37
2023-05-18T00:15:02.390Z,3.53
2023-05-18T00:17:29.574Z,3.40
2023-05-18T00:19:59.654Z,3.93
2023-05-18T00:22:26.637Z,3.57
2023-05-18T00:24:53.867Z,4.47
2023-05-18T00:27:21.067Z,4.00
2023-05-18T00:29:48.068Z,4.20
2023-05-18T00:32:15.046Z,3.87
2023-05-18T00:34:41.961Z,4.07
2023-05-18T00:37:08.919Z,4.17
2023-05-18T00:39:40.592Z,3.90
2023-05-18T00:42:07.552Z,3.93
2023-05-18T00:44:34.512Z,3.77
2023-05-18T00:47:02.070Z,4.30
2023-05-18T00:49:29.193Z,4.90
2023-05-18T00:51:56.587Z,3.60
2023-05-18T00:54:24.023Z,4.07
2023-05-18T00:56:51.637Z,2.90
2023-05-18T00:59:18.709Z,3.37
2023-05-18T01:01:46.731Z,3.40
2023-05-18T01:04:16.469Z,3.23
2023-05-18T01:06:47.241Z,3.30
2023-05-18T01:09:16.287Z,3.53
2023-05-18T01:12:32.667Z,2.87
2023-05-18T01:15:16.402Z,3.00
2023-05-18T01:18:04.989Z,2.97
2023-05-18T01:20:45.836Z,2.90
2023-05-18T01:23:44.890Z,3.67
2023-05-18T01:26:37.709Z,3.20
2023-05-18T01:29:10.191Z,2.80
2023-05-18T01:31:37.315Z,3.70
2023-05-18T01:34:04.300Z,2.97
2023-05-18T01:36:31.628Z,3.10
2023-05-18T01:39:01.986Z,2.27
2023-05-18T01:41:32.470Z,2.57
2023-05-18T01:44:18.273Z,2.37
2023-05-18T01:47:00.683Z,1.97
2023-05-18T01:49:48.433Z,2.30
2023-05-18T01:52:33.485Z,2.70
2023-05-18T01:55:04.208Z,2.57
2023-05-18T01:57:33.838Z,2.67
2023-05-18T02:00:01.397Z,2.67
2023-05-18T02:02:29.021Z,3.30
2023-05-18T02:04:56.300Z,2.70
2023-05-18T02:07:25.688Z,2.50
2023-05-18T02:09:52.565Z,2.40
2023-05-18T02:12:19.441Z,2.63
2023-05-18T02:14:46.548Z,3.00
2023-05-18T02:17:13.541Z,2.37
2023-05-18T02:19:43.121Z,2.47
2023-05-18T02:22:10.094Z,2.40
2023-05-18T02:24:37.020Z,2.83
2023-05-18T02:27:05.505Z,2.80
2023-05-18T02:29:32.502Z,2.80
2023-05-18T02:31:59.459Z,1.87
2023-05-18T02:34:27.558Z,2.40
2023-05-18T02:36:58.054Z,2.13
2023-05-18T02:39:25.160Z,2.83
2023-05-18T02:41:52.033Z,2.50
2023-05-18T02:44:21.719Z,2.17
2023-05-18T02:46:48.652Z,2.43
2023-05-18T02:49:20.589Z,2.77
2023-05-18T02:51:49.723Z,2.30
2023-05-18T02:54:16.660Z,1.87
2023-05-18T02:56:43.688Z,2.60
2023-05-18T02:59:11.604Z,2.30
2023-05-18T03:01:45.613Z,2.20
2023-05-18T03:04:16.955Z,2.53
2023-05-18T03:06:46.676Z,2.10
2023-05-18T03:09:19.992Z,2.43
2023-05-18T03:11:46.940Z,2.37
2023-05-18T03:14:16.312Z,2.83
2023-05-18T03:16:43.250Z,2.20
2023-05-18T03:19:10.257Z,2.97
2023-05-18T03:21:37.352Z,2.83
2023-05-18T03:24:04.832Z,2.30
2023-05-18T03:26:34.301Z,2.57
2023-05-18T03:29:04.245Z,2.57
2023-05-18T03:31:31.343Z,2.10
2023-05-18T03:34:00.915Z,2.40
2023-05-18T03:36:30.424Z,2.40
2023-05-18T03:38:57.379Z,3.50
2023-05-18T03:41:27.018Z,2.60
2023-05-18T03:43:53.996Z,2.50
2023-05-18T03:46:23.268Z,3.07
2023-05-18T03:48:53.843Z,2.53
2023-05-18T03:51:21.192Z,2.40
2023-05-18T03:53:48.479Z,2.70
2023-05-18T03:56:17.765Z,2.80
2023-05-18T03:58:45.626Z,2.60
2023-05-18T04:01:12.529Z,2.87
2023-05-18T04:03:40.766Z,2.43
2023-05-18T04:06:10.276Z,2.43
2023-05-18T04:08:40.453Z,2.50
2023-05-18T04:11:09.853Z,2.83
2023-05-18T04:13:39.337Z,2.53
2023-05-18T04:16:07.217Z,2.30
2023-05-18T04:18:36.368Z,2.40
2023-05-18T04:21:06.577Z,2.23
2023-05-18T04:23:38.933Z,2.40
2023-05-18T04:26:06.522Z,2.40
2023-05-18T04:28:33.912Z,2.80
2023-05-18T04:31:06.199Z,2.87
2023-05-18T04:33:34.151Z,2.40
2023-05-18T04:36:05.031Z,2.80
2023-05-18T04:38:35.900Z,3.20
2023-05-18T04:41:07.660Z,2.67
2023-05-18T04:43:37.874Z,2.33
2023-05-18T04:46:07.648Z,2.57
2023-05-18T04:48:37.570Z,2.63
2023-05-18T04:51:06.979Z,2.50
2023-05-18T04:53:38.771Z,2.60
2023-05-18T04:56:06.488Z,2.60
2023-05-18T04:58:35.658Z,2.40
2023-05-18T05:01:02.672Z,1.80
2023-05-18T05:03:29.829Z,2.77
2023-05-18T05:05:56.964Z,2.60
2023-05-18T05:08:31.417Z,2.60
2023-05-18T05:11:01.101Z,2.20
2023-05-18T05:13:28.284Z,2.17
2023-05-18T05:15:57.488Z,2.77
2023-05-18T05:18:29.119Z,2.13
2023-05-18T05:20:56.221Z,2.60
2023-05-18T05:23:23.096Z,2.37
2023-05-18T05:25:53.015Z,2.60
2023-05-18T05:28:19.874Z,2.47
2023-05-18T05:30:49.837Z,2.27
2023-05-18T05:33:18.612Z,2.70
2023-05-18T05:35:47.680Z,1.90
2023-05-18T05:38:14.648Z,3.30
2023-05-18T05:40:41.590Z,2.30
2023-05-18T05:43:08.470Z,2.63
2023-05-18T05:45:38.859Z,2.73
2023-05-18T05:48:10.083Z,2.17
2023-05-18T05:50:41.189Z,2.63
2023-05-18T05:53:10.791Z,2.60
2023-05-18T05:55:42.200Z,2.40
2023-05-18T05:58:10.337Z,1.80
2023-05-18T06:00:37.364Z,2.90
2023-05-18T06:03:04.354Z,3.33
2023-05-18T06:05:34.048Z,2.60
2023-05-18T06:08:04.805Z,2.47
2023-05-18T06:10:31.798Z,2.93
2023-05-18T06:12:58.946Z,2.00
2023-05-18T06:15:28.474Z,2.00
2023-05-18T06:17:57.862Z,2.67
2023-05-18T06:20:30.029Z,2.00
2023-05-18T06:22:57.438Z,2.27
2023-05-18T06:25:27.424Z,3.30
2023-05-18T06:27:54.363Z,1.83
2023-05-18T06:30:21.279Z,2.40
2023-05-18T06:32:48.242Z,2.57
2023-05-18T06:35:15.166Z,2.30
2023-05-18T06:37:42.090Z,2.27
2023-05-18T06:40:10.441Z,2.80
2023-05-18T06:42:40.395Z,2.47
2023-05-18T06:45:08.139Z,3.37
2023-05-18T06:47:38.048Z,2.30
2023-05-18T06:50:05.586Z,2.13
2023-05-18T06:52:32.636Z,2.03
2023-05-18T06:55:02.596Z,2.90
2023-05-18T06:57:29.747Z,2.40
2023-05-18T06:59:56.666Z,2.47
2023-05-18T07:02:23.613Z,2.57
2023-05-18T07:04:52.059Z,2.10
2023-05-18T07:07:22.081Z,2.40
2023-05-18T07:09:51.577Z,2.13
2023-05-18T07:12:18.533Z,2.23
2023-05-18T07:14:45.524Z,1.90
2023-05-18T07:17:12.416Z,2.50
2023-05-18T07:19:41.519Z,2.20
2023-05-18T07:22:10.697Z,2.33
2023-05-18T07:24:37.673Z,3.13
2023-05-18T07:27:04.895Z,2.30
2023-05-18T07:29:36.618Z,2.53
2023-05-18T07:32:04.029Z,2.33
2023-05-18T07:34:31.983Z,2.23
2023-05-18T07:36:59.080Z,2.37
2023-05-18T07:39:29.341Z,2.80
2023-05-18T07:41:56.619Z,2.23
2023-05-18T07:44:24.299Z,2.20
2023-05-18T07:46:51.568Z,2.03
2023-05-18T07:49:18.543Z,2.13
2023-05-18T07:51:45.718Z,2.40
2023-05-18T07:54:12.857Z,2.50
2023-05-18T07:56:42.250Z,2.43
2023-05-18T07:59:10.151Z,2.50
2023-05-18T08:01:39.962Z,2.50
2023-05-18T08:04:10.245Z,2.10
2023-05-18T08:06:37.771Z,2.73
2023-05-18T08:09:04.847Z,2.37
2023-05-18T08:11:32.730Z,2.40
2023-05-18T08:14:02.189Z,3.00
2023-05-18T08:16:37.056Z,2.37
2023-05-18T08:19:04.467Z,2.23
2023-05-18T08:21:34.544Z,2.60
2023-05-18T08:24:09.502Z,3.10
2023-05-18T08:26:38.665Z,2.40
2023-05-18T08:29:10.759Z,2.53
2023-05-18T08:31:42.320Z,2.30
2023-05-18T08:34:09.331Z,2.60
2023-05-18T08:36:39.184Z,2.63
2023-05-18T08:39:06.144Z,2.57
2023-05-18T08:41:58.606Z,2.60
2023-05-18T08:44:44.614Z,2.20
2023-05-18T08:47:14.418Z,2.70
2023-05-18T08:49:54.424Z,2.40
2023-05-18T08:52:27.949Z,2.60
2023-05-18T08:54:59.994Z,2.70
2023-05-18T08:57:30.983Z,2.17
2023-05-18T09:00:01.048Z,2.80
2023-05-18T09:02:29.261Z,2.37
2023-05-18T09:04:57.354Z,2.63
2023-05-18T09:07:27.432Z,2.63
2023-05-18T09:09:56.571Z,2.50
2023-05-18T09:12:24.722Z,2.80
2023-05-18T09:14:53.068Z,1.73
2023-05-18T09:17:19.954Z,2.63
2023-05-18T09:19:46.990Z,1.90
2023-05-18T09:22:16.508Z,2.50
2023-05-18T09:24:45.921Z,2.60
2023-05-18T09:27:17.643Z,2.63
2023-05-18T09:30:01.908Z,2.20
2023-05-18T09:32:36.682Z,2.10
2023-05-18T09:35:10.046Z,3.27
2023-05-18T09:37:37.242Z,2.53
2023-05-18T09:40:06.726Z,2.40
2023-05-18T09:42:40.872Z,3.00
2023-05-18T09:45:26.656Z,2.53
2023-05-18T09:47:57.259Z,2.40
2023-05-18T09:50:25.225Z,2.97
2023-05-18T09:52:54.384Z,2.50
2023-05-18T09:55:21.533Z,2.40
2023-05-18T09:57:50.496Z,3.13
2023-05-18T10:00:20.758Z,2.70
2023-05-18T10:02:52.811Z,2.40
2023-05-18T10:05:33.168Z,2.57
2023-05-18T10:08:02.013Z,2.40
2023-05-18T10:10:29.870Z,1.90
2023-05-18T10:12:58.498Z,2.50
2023-05-18T10:15:28.194Z,2.60
2023-05-18T10:18:00.007Z,3.33
2023-05-18T10:20:27.543Z,2.57
2023-05-18T10:22:57.050Z,2.07
2023-05-18T10:25:28.948Z,3.10
2023-05-18T10:28:09.121Z,2.60
2023-05-18T10:30:37.826Z,3.07
2023-05-18T10:33:17.069Z,3.27
2023-05-18T10:35:52.665Z,3.40
2023-05-18T10:38:25.646Z,2.73
2023-05-18T10:40:58.665Z,3.00
2023-05-18T10:43:30.724Z,2.60
2023-05-18T10:45:59.895Z,2.53
2023-05-18T10:48:29.636Z,2.70
2023-05-18T10:50:58.748Z,3.03
2023-05-18T10:53:32.137Z,2.73
2023-05-18T10:55:59.468Z,2.33
2023-05-18T10:58:28.478Z,2.40
2023-05-18T11:01:01.840Z,2.50
2023-05-18T11:03:33.238Z,3.07
2023-05-18T11:06:14.801Z,3.27
2023-05-18T11:08:50.359Z,3.17
2023-05-18T11:11:19.541Z,2.57
2023-05-18T11:13:51.632Z,2.80
2023-05-18T11:16:22.139Z,2.53
2023-05-18T11:18:52.456Z,3.17
2023-05-18T11:21:25.390Z,2.73
2023-05-18T11:24:20.008Z,2.30
2023-05-18T11:26:49.948Z,2.80
2023-05-18T11:29:42.186Z,2.60
2023-05-18T11:32:31.042Z,2.33
2023-05-18T11:35:05.720Z,2.83
2023-05-18T11:37:38.793Z,2.60
2023-05-18T11:40:11.566Z,3.07
2023-05-18T11:42:41.367Z,2.23
2023-05-18T11:45:08.537Z,2.77
2023-05-18T11:47:41.337Z,2.70
2023-05-18T11:50:12.171Z,2.67
2023-05-18T11:52:52.308Z,3.13
2023-05-18T11:55:21.266Z,2.30
2023-05-18T11:57:52.553Z,2.47
2023-05-18T12:00:21.032Z,1.90
2023-05-18T12:02:53.734Z,2.77
2023-05-18T12:05:21.440Z,2.87
2023-05-18T12:07:53.762Z,1.90
2023-05-18T12:10:22.279Z,3.07
2023-05-18T12:12:57.157Z,2.90
2023-05-18T12:15:28.770Z,3.07
2023-05-18T12:17:58.800Z,2.13
2023-05-18T12:20:26.596Z,2.93
2023-05-18T12:22:55.444Z,2.47
2023-05-18T12:25:26.982Z,2.70
2023-05-18T12:27:57.387Z,3.03
2023-05-18T12:30:35.819Z,2.37
2023-05-18T12:33:07.030Z,2.13
2023-05-18T12:35:38.575Z,2.60
2023-05-18T12:38:08.057Z,2.10
2023-05-18T12:40:44.135Z,2.50
2023-05-18T12:43:16.358Z,2.83
2023-05-18T12:45:45.108Z,2.27
2023-05-18T12:48:15.576Z,2.77
2023-05-18T12:50:53.257Z,2.57
2023-05-18T12:53:20.286Z,2.77
2023-05-18T12:56:09.738Z,2.80
2023-05-18T12:58:37.384Z,2.03
2023-05-18T13:01:09.686Z,2.50
2023-05-18T13:03:42.833Z,2.47
2023-05-18T13:06:12.485Z,2.63
2023-05-18T13:08:39.555Z,2.63
2023-05-18T13:11:14.183Z,2.30
2023-05-18T13:14:00.730Z,2.30
2023-05-18T13:16:30.873Z,2.70
2023-05-18T13:19:09.680Z,2.57
2023-05-18T13:21:37.197Z,2.53
2023-05-18T13:24:07.187Z,2.60
2023-05-18T13:26:34.254Z,2.43
2023-05-18T13:29:01.727Z,2.70
2023-05-18T13:31:31.652Z,2.60
2023-05-18T13:33:58.606Z,2.60
2023-05-18T13:36:26.204Z,2.70
2023-05-18T13:38:55.375Z,2.43
2023-05-18T13:41:22.305Z,3.07
2023-05-18T13:43:49.213Z,3.07
2023-05-18T13:46:16.325Z,2.80
2023-05-18T13:48:45.693Z,2.70
2023-05-18T13:51:12.659Z,2.17
2023-05-18T13:53:40.876Z,2.83
2023-05-18T13:56:08.216Z,2.60
2023-05-18T13:58:43.630Z,2.37
2023-05-18T14:01:14.262Z,2.63
2023-05-18T14:03:41.335Z,2.53
2023-05-18T14:06:11.137Z,2.73
2023-05-18T14:08:42.559Z,2.83
2023-05-18T14:11:09.502Z,3.00
2023-05-18T14:13:36.365Z,3.40
2023-05-18T14:16:03.268Z,2.50
2023-05-18T14:18:30.199Z,2.87
2023-05-18T14:21:02.332Z,3.17
2023-05-18T14:23:31.882Z,2.83
2023-05-18T14:26:01.040Z,2.70
2023-05-18T14:28:30.978Z,2.50
2023-05-18T14:31:01.050Z,6.13
2023-05-18T14:33:27.955Z,3.50
2023-05-18T14:35:58.518Z,2.33
2023-05-18T14:38:26.932Z,2.70
2023-05-18T14:40:54.080Z,2.10
2023-05-18T14:43:21.344Z,2.60
2023-05-18T14:46:00.185Z,2.80
2023-05-18T14:48:37.001Z,3.10
2023-05-18T14:51:07.228Z,2.63
2023-05-18T14:53:34.185Z,2.73
2023-05-18T14:56:06.190Z,3.03
2023-05-18T14:58:35.368Z,2.27
2023-05-18T15:01:05.621Z,1.80
2023-05-18T15:03:37.561Z,2.83
2023-05-18T15:06:04.758Z,2.53
2023-05-18T15:08:34.798Z,2.93
2023-05-18T15:11:01.987Z,2.47
2023-05-18T15:13:31.864Z,2.77
2023-05-18T15:15:58.989Z,2.30
2023-05-18T15:18:28.015Z,2.63
2023-05-18T15:20:57.058Z,2.80
2023-05-18T15:23:23.959Z,3.10
2023-05-18T15:25:55.498Z,2.70
2023-05-18T15:28:22.421Z,2.50
2023-05-18T15:30:51.883Z,2.70
2023-05-18T15:33:21.772Z,2.80
2023-05-18T15:35:48.798Z,2.73
2023-05-18T15:38:15.732Z,2.77
2023-05-18T15:40:47.805Z,1.90
2023-05-18T15:43:17.374Z,2.73
2023-05-18T15:45:44.418Z,2.77
2023-05-18T15:48:13.879Z,3.77
2023-05-18T15:50:40.876Z,3.30
2023-05-18T15:53:07.817Z,2.90
2023-05-18T15:55:34.718Z,3.20
2023-05-18T15:58:02.593Z,3.10
2023-05-18T16:00:34.135Z,3.33
2023-05-18T16:03:06.151Z,3.03
2023-05-18T16:05:36.136Z,2.40
2023-05-18T16:08:03.095Z,2.60
2023-05-18T16:10:30.492Z,2.50
2023-05-18T16:13:05.478Z,3.27
2023-05-18T16:15:38.789Z,2.97
2023-05-18T16:18:06.025Z,3.00
2023-05-18T16:20:35.567Z,2.80
2023-05-18T16:23:02.552Z,2.47
2023-05-18T16:25:32.709Z,2.37
2023-05-18T16:27:59.810Z,2.80
2023-05-18T16:30:29.653Z,2.23
2023-05-18T16:32:56.735Z,2.40
2023-05-18T16:35:25.974Z,3.30
2023-05-18T16:37:52.991Z,3.27
2023-05-18T16:40:20.071Z,2.43
2023-05-18T16:42:49.616Z,3.60
2023-05-18T16:45:18.790Z,2.53
2023-05-18T16:47:45.674Z,2.40
2023-05-18T16:50:12.634Z,2.80
2023-05-18T16:52:39.533Z,2.40
2023-05-18T16:55:09.358Z,3.00
2023-05-18T16:57:36.773Z,2.47
2023-05-18T17:00:07.418Z,2.30
2023-05-18T17:02:38.101Z,3.80
2023-05-18T17:05:10.996Z,2.20
2023-05-18T17:07:41.078Z,2.60
2023-05-18T17:10:08.729Z,2.23
2023-05-18T17:12:36.812Z,2.70
2023-05-18T17:15:04.665Z,3.57
2023-05-18T17:17:31.822Z,2.97
2023-05-18T17:20:02.279Z,2.53
2023-05-18T17:22:29.385Z,2.67
2023-05-18T17:25:01.147Z,2.80
2023-05-18T17:27:28.495Z,2.83
2023-05-18T17:29:57.769Z,3.13
2023-05-18T17:32:28.043Z,2.57
2023-05-18T17:34:57.807Z,2.83
2023-05-18T17:37:24.799Z,2.60
2023-05-18T17:39:53.906Z,2.90
2023-05-18T17:42:22.983Z,2.30
2023-05-18T17:44:52.479Z,2.50
2023-05-18T17:47:22.770Z,2.50
2023-05-18T17:49:52.658Z,2.70
2023-05-18T17:52:21.767Z,3.00
2023-05-18T17:54:49.689Z,2.80
2023-05-18T17:57:16.827Z,3.13
2023-05-18T17:59:46.241Z,3.27
2023-05-18T18:02:14.154Z,3.00
2023-05-18T18:04:41.167Z,3.03
2023-05-18T18:07:08.555Z,3.10
2023-05-18T18:09:36.317Z,3.23
2023-05-18T18:12:03.641Z,2.70
2023-05-18T18:14:30.563Z,2.97
2023-05-18T18:16:59.696Z,3.70
2023-05-18T18:19:27.193Z,3.30
2023-05-18T18:21:54.751Z,2.90
2023-05-18T18:24:23.418Z,3.03
2023-05-18T18:26:53.042Z,3.40
2023-05-18T18:29:23.243Z,3.40
2023-05-18T18:31:50.151Z,3.20
2023-05-18T18:34:19.356Z,2.83
2023-05-18T18:36:48.631Z,3.63
2023-05-18T18:39:15.556Z,3.30
2023-05-18T18:41:42.632Z,3.50
2023-05-18T18:44:09.528Z,3.13
2023-05-18T18:46:39.522Z,3.80
2023-05-18T18:49:06.429Z,3.10
2023-05-18T18:51:33.423Z,3.20
2023-05-18T18:54:00.408Z,3.70
2023-05-18T18:56:31.321Z,3.10
2023-05-18T18:59:00.587Z,3.67
2023-05-18T19:01:27.553Z,3.00
2023-05-18T19:03:56.736Z,3.20
2023-05-18T19:06:24.260Z,3.00
2023-05-18T19:08:53.267Z,3.97
2023-05-18T19:11:22.117Z,3.20
2023-05-18T19:13:49.259Z,3.57
2023-05-18T19:16:17.624Z,3.57
2023-05-18T19:18:45.357Z,3.60
2023-05-18T19:21:12.516Z,3.70
2023-05-18T19:23:41.673Z,4.50
2023-05-18T19:26:08.991Z,4.17
2023-05-18T19:28:35.982Z,4.00
2023-05-18T19:31:05.275Z,5.40
2023-05-18T19:33:32.654Z,5.07
2023-05-18T19:35:59.680Z,4.27
2023-05-18T19:38:26.570Z,4.33
2023-05-18T19:40:53.469Z,4.50
2023-05-18T19:43:20.349Z,3.73
2023-05-18T19:45:50.195Z,4.10
2023-05-18T19:48:17.965Z,4.47
2023-05-18T19:50:47.466Z,4.10
2023-05-18T19:53:16.624Z,4.10
2023-05-18T19:55:43.552Z,3.43
2023-05-18T19:58:10.473Z,3.63
2023-05-18T20:00:38.022Z,3.90
2023-05-18T20:03:09.387Z,3.70
2023-05-18T20:05:38.665Z,4.30
2023-05-18T20:08:07.501Z,4.30
2023-05-18T20:10:34.493Z,4.83
2023-05-18T20:13:01.726Z,4.33
2023-05-18T20:15:35.218Z,3.93
2023-05-18T20:18:02.887Z,4.13
2023-05-18T20:20:35.676Z,4.00
2023-05-18T20:23:07.522Z,4.13
2023-05-18T20:25:37.922Z,4.23
2023-05-18T20:28:08.091Z,4.50
2023-05-18T20:30:35.102Z,4.13
2023-05-18T20:33:04.059Z,3.80
2023-05-18T20:35:33.837Z,4.73
2023-05-18T20:38:02.523Z,4.53
2023-05-18T20:40:31.998Z,4.50
2023-05-18T20:43:00.816Z,5.00
2023-05-18T20:45:31.485Z,4.90
2023-05-18T20:48:04.556Z,4.50
2023-05-18T20:50:35.140Z,4.47
2023-05-18T20:53:02.026Z,4.00
2023-05-18T20:55:29.220Z,4.23
2023-05-18T20:57:56.113Z,4.30
2023-05-18T21:00:23.030Z,3.60
2023-05-18T21:02:50.001Z,3.87
2023-05-18T21:05:19.123Z,4.67
2023-05-18T21:07:50.520Z,4.30
2023-05-18T21:10:17.469Z,3.83
2023-05-18T21:12:46.705Z,4.30
2023-05-18T21:15:13.601Z,3.83
2023-05-18T21:17:40.610Z,4.30
2023-05-18T21:20:10.699Z,4.53
2023-05-18T21:22:37.722Z,3.97
2023-05-18T21:25:06.333Z,3.90
2023-05-18T21:27:33.833Z,4.20
2023-05-18T21:30:00.848Z,4.10
2023-05-18T21:32:27.923Z,3.60
2023-05-18T21:34:54.933Z,5.50
2023-05-18T21:37:21.953Z,4.37
2023-05-18T21:39:51.289Z,3.70
2023-05-18T21:42:20.941Z,6.47
2023-05-18T21:44:50.074Z,4.63
2023-05-18T21:47:17.130Z,4.50
2023-05-18T21:49:44.247Z,3.70
2023-05-18T21:52:11.248Z,4.30
2023-05-18T21:54:38.538Z,4.40
2023-05-18T21:57:05.912Z,3.90
2023-05-18T21:59:35.537Z,3.87
2023-05-18T22:02:04.966Z,4.23
2023-05-18T22:04:33.980Z,3.60
2023-05-18T22:07:00.963Z,3.83
2023-05-18T22:09:27.957Z,3.53
2023-05-18T22:11:54.941Z,5.37
2023-05-18T22:14:21.883Z,4.10
2023-05-18T22:16:53.490Z,4.03
2023-05-18T22:19:23.527Z,4.10
2023-05-18T22:21:50.643Z,4.00
2023-05-18T22:24:19.912Z,4.20
2023-05-18T22:26:48.918Z,3.60
2023-05-18T22:29:18.067Z,3.70
2023-05-18T22:31:47.614Z,4.07
2023-05-18T22:34:16.802Z,3.83
2023-05-18T22:36:43.849Z,4.03
2023-05-18T22:39:17.224Z,4.03
2023-05-18T22:41:46.547Z,5.00
2023-05-18T22:44:13.447Z,4.57
2023-05-18T22:46:40.365Z,3.70
2023-05-18T22:49:09.832Z,3.90
2023-05-18T22:51:36.715Z,3.57
2023-05-18T22:54:06.374Z,3.77
2023-05-18T22:56:36.327Z,3.70
2023-05-18T22:59:03.361Z,3.33
2023-05-18T23:01:32.588Z,3.67
2023-05-18T23:04:02.168Z,3.57
2023-05-18T23:06:31.615Z,4.17
2023-05-18T23:09:00.475Z,3.77
2023-05-18T23:11:28.665Z,4.17
2023-05-18T23:13:55.681Z,3.30
2023-05-18T23:16:24.118Z,3.53
2023-05-18T23:18:53.699Z,3.90
2023-05-18T23:21:21.736Z,3.37
2023-05-18T23:23:48.677Z,4.80
2023-05-18T23:26:15.720Z,3.70
2023-05-18T23:28:53.766Z,3.83
2023-05-18T23:31:22.029Z,2.93
2023-05-18T23:33:49.407Z,3.60
2023-05-18T23:36:27.378Z,3.10
2023-05-18T23:39:01.669Z,3.20
2023-05-18T23:41:37.803Z,3.77
2023-05-18T23:44:05.253Z,3.60
2023-05-18T23:46:32.597Z,3.97
2023-05-18T23:49:02.896Z,3.17
2023-05-18T23:51:33.383Z,3.37
2023-05-18T23:54:05.879Z,4.10
2023-05-18T23:56:34.095Z,3.13
2023-05-18T23:59:01.730Z,3.27
